createdAt,value
2022-12-04T00:00:27.505Z,53.40
2022-12-04T00:02:54.601Z,56.47
2022-12-04T00:05:21.412Z,58.67
2022-12-04T00:07:49.406Z,52.47
2022-12-04T00:10:16.177Z,55.23
2022-12-04T00:12:43.202Z,53.67
2022-12-04T00:15:26.969Z,53.47
2022-12-04T00:17:54.673Z,57.33
2022-12-04T00:20:22.812Z,53.60
2022-12-04T00:22:50.377Z,53.83
2022-12-04T00:25:17.160Z,54.70
2022-12-04T00:27:43.923Z,66.43
2022-12-04T00:30:11.200Z,55.37
2022-12-04T00:32:37.869Z,51.20
2022-12-04T00:35:04.916Z,60.03
2022-12-04T00:37:33.268Z,53.77
2022-12-04T00:40:00.378Z,50.60
2022-12-04T00:42:27.108Z,60.40
2022-12-04T00:44:53.836Z,59.27
2022-12-04T00:47:20.775Z,56.27
2022-12-04T00:49:47.492Z,60.60
2022-12-04T00:52:14.211Z,60.87
2022-12-04T00:54:40.848Z,54.10
2022-12-04T00:57:07.659Z,66.67
2022-12-04T00:59:34.450Z,58.60
2022-12-04T01:02:01.522Z,61.60
2022-12-04T01:04:28.261Z,58.30
2022-12-04T01:06:58.044Z,58.87
2022-12-04T01:09:28.359Z,54.07
2022-12-04T01:11:54.984Z,55.43
2022-12-04T01:14:21.730Z,58.07
2022-12-04T01:16:48.459Z,56.90
2022-12-04T01:19:15.289Z,57.10
2022-12-04T01:21:41.950Z,55.83
2022-12-04T01:24:09.291Z,55.77
2022-12-04T01:26:35.967Z,52.23
2022-12-04T01:29:03.537Z,56.70
2022-12-04T01:31:30.715Z,48.77
2022-12-04T01:33:57.785Z,59.93
2022-12-04T01:36:35.576Z,60.73
2022-12-04T01:39:02.655Z,55.67
2022-12-04T01:41:32.177Z,55.93
2022-12-04T01:44:13.996Z,60.10
2022-12-04T01:46:42.898Z,71.50
2022-12-04T01:49:15.710Z,59.37
2022-12-04T01:51:46.470Z,59.07
2022-12-04T01:54:20.269Z,61.37
2022-12-04T01:56:51.611Z,58.87
2022-12-04T01:59:22.948Z,53.10
2022-12-04T02:02:02.533Z,53.57
2022-12-04T02:04:31.053Z,55.63
2022-12-04T02:06:57.805Z,58.10
2022-12-04T02:09:26.983Z,60.40
2022-12-04T02:12:25.269Z,52.83
2022-12-04T02:15:07.354Z,57.90
2022-12-04T02:17:46.209Z,64.33
2022-12-04T02:20:34.026Z,53.10
2022-12-04T02:23:17.837Z,46.70
2022-12-04T02:26:00.886Z,56.23
2022-12-04T02:28:41.622Z,59.83
2022-12-04T02:31:13.614Z,58.13
2022-12-04T02:34:16.148Z,54.00
2022-12-04T02:37:00.713Z,53.57
2022-12-04T02:39:43.774Z,68.47
2022-12-04T02:42:18.532Z,54.77
2022-12-04T02:44:50.584Z,59.27
2022-12-04T02:47:22.274Z,64.30
2022-12-04T02:49:57.045Z,50.80
2022-12-04T02:52:31.618Z,50.80
2022-12-04T02:55:08.356Z,45.13
2022-12-04T02:57:40.940Z,55.33
2022-12-04T03:00:08.961Z,53.83
2022-12-04T03:02:48.485Z,56.47
2022-12-04T03:05:18.488Z,56.13
2022-12-04T03:07:57.541Z,53.07
2022-12-04T03:10:34.846Z,50.67
2022-12-04T03:13:11.656Z,56.90
2022-12-04T03:15:49.205Z,58.30
2022-12-04T03:18:26.716Z,52.17
2022-12-04T03:21:01.051Z,57.40
2022-12-04T03:23:33.782Z,61.50
2022-12-04T03:26:14.850Z,51.20
2022-12-04T03:28:57.273Z,52.87
2022-12-04T03:31:52.804Z,57.93
2022-12-04T03:34:27.842Z,46.50
2022-12-04T03:36:59.270Z,56.00
2022-12-04T03:39:35.113Z,61.50
2022-12-04T03:42:13.196Z,53.57
2022-12-04T03:44:43.995Z,49.27
2022-12-04T03:47:18.739Z,60.50
2022-12-04T03:49:59.658Z,57.70
2022-12-04T03:52:40.454Z,53.00
2022-12-04T03:55:13.341Z,52.77
2022-12-04T03:57:44.022Z,54.47
2022-12-04T04:00:18.689Z,47.40
2022-12-04T04:02:59.929Z,51.20
2022-12-04T04:05:28.861Z,66.20
2022-12-04T04:08:20.805Z,54.80
2022-12-04T04:10:49.293Z,51.77
2022-12-04T04:13:40.604Z,46.67
2022-12-04T04:16:29.767Z,51.83
2022-12-04T04:19:17.332Z,52.43
2022-12-04T04:22:05.020Z,50.80
2022-12-04T04:24:36.649Z,46.37
2022-12-04T04:27:03.622Z,50.47
2022-12-04T04:29:30.541Z,51.73
2022-12-04T04:32:10.465Z,50.10
2022-12-04T04:34:58.612Z,46.77
2022-12-04T04:37:38.197Z,48.83
2022-12-04T04:40:24.346Z,40.97
2022-12-04T04:42:55.174Z,52.93
2022-12-04T04:45:44.097Z,46.87
2022-12-04T04:48:13.891Z,47.80
2022-12-04T04:50:42.389Z,44.23
2022-12-04T04:53:15.306Z,46.73
2022-12-04T04:55:42.519Z,45.10
2022-12-04T04:58:12.437Z,51.37
2022-12-04T05:00:40.941Z,51.90
2022-12-04T05:03:07.659Z,41.53
2022-12-04T05:05:34.368Z,42.17
2022-12-04T05:08:01.276Z,39.03
2022-12-04T05:10:28.036Z,36.80
2022-12-04T05:12:54.682Z,40.30
2022-12-04T05:15:21.336Z,38.07
2022-12-04T05:17:48.219Z,40.20
2022-12-04T05:20:14.981Z,42.97
2022-12-04T05:22:42.075Z,40.63
2022-12-04T05:25:10.419Z,39.43
2022-12-04T05:27:37.257Z,46.20
2022-12-04T05:30:05.011Z,38.30
2022-12-04T05:32:31.676Z,40.47
2022-12-04T05:34:58.529Z,41.37
2022-12-04T05:37:25.881Z,39.80
2022-12-04T05:39:53.866Z,40.37
2022-12-04T05:42:21.077Z,47.27
2022-12-04T05:44:49.743Z,41.00
2022-12-04T05:47:17.157Z,40.10
2022-12-04T05:49:43.853Z,41.00
2022-12-04T05:52:10.758Z,39.60
2022-12-04T05:54:37.858Z,40.40
2022-12-04T05:57:04.936Z,41.03
2022-12-04T05:59:31.689Z,39.97
2022-12-04T06:01:58.569Z,41.00
2022-12-04T06:04:25.789Z,41.07
2022-12-04T06:06:54.417Z,38.10
2022-12-04T06:09:21.418Z,40.13
2022-12-04T06:11:48.139Z,38.20
2022-12-04T06:14:16.363Z,42.33
2022-12-04T06:16:45.278Z,41.83
2022-12-04T06:19:19.409Z,44.57
2022-12-04T06:21:49.046Z,34.50
2022-12-04T06:24:19.012Z,36.87
2022-12-04T06:27:11.345Z,44.23
2022-12-04T06:29:32.789Z,38.70
2022-12-04T06:31:59.685Z,38.37
2022-12-04T06:34:26.595Z,38.27
2022-12-04T06:36:53.405Z,36.37
2022-12-04T06:39:20.227Z,36.10
2022-12-04T06:41:47.553Z,34.60
2022-12-04T06:44:20.634Z,35.63
2022-12-04T06:46:50.202Z,35.50
2022-12-04T06:49:17.034Z,34.00
2022-12-04T06:51:44.086Z,40.10
2022-12-04T06:54:13.853Z,36.40
2022-12-04T06:56:40.758Z,38.13
2022-12-04T06:59:07.870Z,31.43
2022-12-04T07:01:35.463Z,36.80
2022-12-04T07:04:04.966Z,35.60
2022-12-04T07:06:34.559Z,35.53
2022-12-04T07:09:07.710Z,33.87
2022-12-04T07:11:34.578Z,34.03
2022-12-04T07:14:01.923Z,33.00
2022-12-04T07:16:33.976Z,34.23
2022-12-04T07:19:03.530Z,33.90
2022-12-04T07:21:32.005Z,35.27
2022-12-04T07:24:00.912Z,38.60
2022-12-04T07:26:29.507Z,34.50
2022-12-04T07:28:57.668Z,32.13
2022-12-04T07:31:26.045Z,37.53
2022-12-04T07:33:53.903Z,36.13
2022-12-04T07:36:22.397Z,36.43
2022-12-04T07:38:50.214Z,34.60
2022-12-04T07:41:17.717Z,34.50
2022-12-04T07:43:44.788Z,38.00
2022-12-04T07:46:20.277Z,36.07
2022-12-04T07:48:47.635Z,34.23
2022-12-04T07:51:17.807Z,35.10
2022-12-04T07:53:45.457Z,29.83
2022-12-04T07:56:12.817Z,37.27
2022-12-04T07:58:41.432Z,34.10
2022-12-04T08:01:13.702Z,30.70
2022-12-04T08:03:47.643Z,32.00
2022-12-04T08:06:16.615Z,35.00
2022-12-04T08:08:43.771Z,41.93
2022-12-04T08:11:13.714Z,37.53
2022-12-04T08:13:40.826Z,39.73
2022-12-04T08:16:09.913Z,34.20
2022-12-04T08:18:37.054Z,36.93
2022-12-04T08:21:04.983Z,37.97
2022-12-04T08:23:31.848Z,35.30
2022-12-04T08:26:00.933Z,36.93
2022-12-04T08:28:28.251Z,33.67
2022-12-04T08:30:58.468Z,34.07
2022-12-04T08:33:25.296Z,38.93
2022-12-04T08:35:52.032Z,34.30
2022-12-04T08:38:18.851Z,40.60
2022-12-04T08:40:45.556Z,36.33
2022-12-04T08:43:12.229Z,36.93
2022-12-04T08:45:39.425Z,30.77
2022-12-04T08:48:07.923Z,31.80
2022-12-04T08:50:34.759Z,30.60
2022-12-04T08:53:01.431Z,32.27
2022-12-04T08:55:31.143Z,30.47
2022-12-04T08:57:57.897Z,30.53
2022-12-04T09:00:27.169Z,32.63
2022-12-04T09:02:54.025Z,30.10
2022-12-04T09:05:21.067Z,33.33
2022-12-04T09:07:48.360Z,31.10
2022-12-04T09:10:15.173Z,33.57
2022-12-04T09:12:43.865Z,35.63
2022-12-04T09:15:11.123Z,31.03
2022-12-04T09:17:38.239Z,32.50
2022-12-04T09:20:09.081Z,35.30
2022-12-04T09:23:02.260Z,31.70
2022-12-04T09:25:23.663Z,33.70
2022-12-04T09:27:50.507Z,29.10
2022-12-04T09:30:17.630Z,33.97
2022-12-04T09:32:44.444Z,30.23
2022-12-04T09:35:13.843Z,30.80
2022-12-04T09:37:40.789Z,27.70
2022-12-04T09:40:09.317Z,29.60
2022-12-04T09:42:55.847Z,36.83
2022-12-04T09:45:25.574Z,33.03
2022-12-04T09:47:58.049Z,32.13
2022-12-04T09:50:45.583Z,30.57
2022-12-04T09:53:24.807Z,31.97
2022-12-04T09:56:00.379Z,36.03
2022-12-04T09:58:57.354Z,30.53
2022-12-04T10:01:44.857Z,30.53
2022-12-04T10:04:12.937Z,27.20
2022-12-04T10:07:01.313Z,31.17
2022-12-04T10:09:35.063Z,33.10
2022-12-04T10:12:14.683Z,34.63
2022-12-04T10:14:49.869Z,32.53
2022-12-04T10:17:40.906Z,26.77
2022-12-04T10:20:14.068Z,28.90
2022-12-04T10:23:13.385Z,35.60
2022-12-04T10:25:41.836Z,27.23
2022-12-04T10:28:31.413Z,26.23
2022-12-04T10:31:02.115Z,29.40
2022-12-04T10:33:44.164Z,30.53
2022-12-04T10:36:17.843Z,22.27
2022-12-04T10:38:53.881Z,25.70
2022-12-04T10:41:52.453Z,32.60
2022-12-04T10:44:20.731Z,29.17
2022-12-04T10:46:48.823Z,26.13
2022-12-04T10:49:28.754Z,27.60
2022-12-04T10:52:14.332Z,30.37
2022-12-04T10:55:01.865Z,29.80
2022-12-04T10:57:49.200Z,31.90
2022-12-04T11:00:36.296Z,27.20
2022-12-04T11:03:27.666Z,31.20
2022-12-04T11:06:15.128Z,32.33
2022-12-04T11:09:03.737Z,29.67
2022-12-04T11:11:51.897Z,29.47
2022-12-04T11:14:42.744Z,28.80
2022-12-04T11:17:32.568Z,23.67
2022-12-04T11:20:25.107Z,24.40
2022-12-04T11:23:16.942Z,24.90
2022-12-04T11:26:06.447Z,28.13
2022-12-04T11:28:54.944Z,22.70
2022-12-04T11:31:47.467Z,24.13
2022-12-04T11:34:41.053Z,27.27
2022-12-04T11:37:33.949Z,29.77
2022-12-04T11:40:21.832Z,31.27
2022-12-04T11:43:21.372Z,29.60
2022-12-04T11:46:22.012Z,29.40
2022-12-04T11:49:21.756Z,31.57
2022-12-04T11:52:31.603Z,26.90
2022-12-04T11:55:53.101Z,31.10
2022-12-04T11:59:24.155Z,26.47
2022-12-04T12:02:20.230Z,27.00
2022-12-04T12:05:22.292Z,25.87
2022-12-04T12:08:09.194Z,35.73
2022-12-04T12:11:10.426Z,26.17
2022-12-04T12:14:08.763Z,26.83
2022-12-04T12:17:11.044Z,26.87
2022-12-04T12:20:06.678Z,28.40
2022-12-04T12:23:11.946Z,26.40
2022-12-04T12:26:16.249Z,22.67
2022-12-04T12:29:13.238Z,30.90
2022-12-04T12:32:29.840Z,25.60
2022-12-04T12:35:29.142Z,24.47
2022-12-04T12:38:25.174Z,23.73
2022-12-04T12:41:23.514Z,26.10
2022-12-04T12:44:22.285Z,29.73
2022-12-04T12:47:19.534Z,31.27
2022-12-04T12:50:24.043Z,30.73
2022-12-04T12:53:19.406Z,28.73
2022-12-04T12:56:11.977Z,25.87
2022-12-04T12:59:04.187Z,24.80
2022-12-04T13:02:00.699Z,28.23
2022-12-04T13:04:52.767Z,29.20
2022-12-04T13:07:54.275Z,25.20
2022-12-04T13:10:47.109Z,27.97
2022-12-04T13:13:38.988Z,26.23
2022-12-04T13:16:51.550Z,29.87
2022-12-04T13:19:46.534Z,27.77
2022-12-04T13:23:00.207Z,25.43
2022-12-04T13:26:21.964Z,25.10
2022-12-04T13:29:44.857Z,24.20
2022-12-04T13:32:55.398Z,26.73
2022-12-04T13:36:34.223Z,26.40
2022-12-04T13:39:36.485Z,27.90
2022-12-04T13:42:28.867Z,23.63
2022-12-04T13:45:44.679Z,28.70
2022-12-04T13:48:39.575Z,28.67
2022-12-04T13:51:38.125Z,33.17
2022-12-04T13:54:34.243Z,31.77
2022-12-04T13:57:22.653Z,26.07
2022-12-04T14:00:25.937Z,30.73
2022-12-04T14:03:49.555Z,21.90
2022-12-04T14:06:43.194Z,25.70
2022-12-04T14:09:42.511Z,28.10
2022-12-04T14:12:35.133Z,26.23
2022-12-04T14:15:24.483Z,25.97
2022-12-04T14:18:11.578Z,26.63
2022-12-04T14:21:05.641Z,30.17
2022-12-04T14:23:53.676Z,29.03
2022-12-04T14:30:00.094Z,24.73
2022-12-04T14:32:56.143Z,26.47
2022-12-04T14:35:48.755Z,25.73
2022-12-04T14:38:35.895Z,27.93
2022-12-04T14:41:27.173Z,31.63
2022-12-04T14:44:30.199Z,67.30
2022-12-04T14:47:34.023Z,34.53
2022-12-04T14:51:12.530Z,31.90
2022-12-04T14:54:08.873Z,26.67
2022-12-04T14:57:12.065Z,33.40
2022-12-04T15:00:00.935Z,34.30
2022-12-04T15:02:51.950Z,25.77
2022-12-04T15:05:39.027Z,27.90
2022-12-04T15:08:26.121Z,32.03
2022-12-04T15:11:39.142Z,28.23
2022-12-04T15:14:26.219Z,30.83
2022-12-04T15:17:15.520Z,28.20
2022-12-04T15:20:11.816Z,31.50
2022-12-04T15:22:58.867Z,27.20
2022-12-04T15:25:48.681Z,26.90
2022-12-04T15:28:43.984Z,35.53
2022-12-04T15:31:31.003Z,36.80
2022-12-04T15:34:21.583Z,28.73
2022-12-04T15:37:25.633Z,27.30
2022-12-04T15:40:20.992Z,36.73
2022-12-04T15:43:17.210Z,25.00
2022-12-04T15:46:14.130Z,32.87
2022-12-04T15:49:18.377Z,27.20
2022-12-04T15:52:17.748Z,32.30
2022-12-04T15:55:08.951Z,31.50
2022-12-04T15:58:04.369Z,30.47
2022-12-04T16:01:01.097Z,27.23
2022-12-04T16:03:51.178Z,29.60
2022-12-04T16:06:56.404Z,29.13
2022-12-04T16:10:03.297Z,27.43
2022-12-04T16:13:00.822Z,27.17
2022-12-04T16:15:47.869Z,26.60
2022-12-04T16:18:35.158Z,27.03
2022-12-04T16:21:26.873Z,26.20
2022-12-04T16:24:14.189Z,29.63
2022-12-04T16:27:01.404Z,30.70
2022-12-04T16:29:49.956Z,30.33
2022-12-04T16:32:37.115Z,30.03
2022-12-04T16:35:24.189Z,29.77
2022-12-04T16:38:16.757Z,31.33
2022-12-04T16:41:13.249Z,33.43
2022-12-04T16:44:01.118Z,30.37
2022-12-04T16:46:50.977Z,33.80
2022-12-04T16:49:38.817Z,40.17
2022-12-04T16:52:26.302Z,31.23
2022-12-04T16:55:24.726Z,33.70
2022-12-04T16:58:11.913Z,35.53
2022-12-04T17:00:58.932Z,32.30
2022-12-04T17:03:46.295Z,34.03
2022-12-04T17:06:33.455Z,38.30
2022-12-04T17:09:20.660Z,40.33
2022-12-04T17:12:08.574Z,33.63
2022-12-04T17:14:55.832Z,29.43
2022-12-04T17:17:43.082Z,31.70
2022-12-04T17:20:31.594Z,45.00
2022-12-04T17:23:18.788Z,40.13
2022-12-04T17:26:08.441Z,40.23
2022-12-04T17:28:55.496Z,34.87
2022-12-04T17:31:42.496Z,44.50
2022-12-04T17:34:29.802Z,38.53
2022-12-04T17:37:16.865Z,42.73
2022-12-04T17:40:05.432Z,36.30
2022-12-04T17:42:52.516Z,36.57
2022-12-04T17:45:41.167Z,38.23
2022-12-04T17:48:29.393Z,34.07
2022-12-04T17:51:20.062Z,39.00
2022-12-04T17:54:07.536Z,40.77
2022-12-04T17:56:57.740Z,46.80
2022-12-04T17:59:45.814Z,48.77
2022-12-04T18:02:32.800Z,59.43
2022-12-04T18:05:19.806Z,45.50
2022-12-04T18:08:06.788Z,36.40
2022-12-04T18:10:53.998Z,38.40
2022-12-04T18:13:41.057Z,35.33
2022-12-04T18:16:30.147Z,44.30
2022-12-04T18:19:17.171Z,41.97
2022-12-04T18:22:04.215Z,36.83
2022-12-04T18:24:51.698Z,39.27
2022-12-04T18:27:41.793Z,48.37
2022-12-04T18:30:29.259Z,41.27
2022-12-04T18:33:19.032Z,42.13
2022-12-04T18:36:09.145Z,41.60
2022-12-04T18:38:58.704Z,51.33
2022-12-04T18:41:46.389Z,44.77
2022-12-04T18:44:33.486Z,43.33
2022-12-04T18:47:20.443Z,49.20
2022-12-04T18:50:07.853Z,45.63
2022-12-04T18:52:59.932Z,46.33
2022-12-04T18:55:48.299Z,47.13
2022-12-04T18:58:35.295Z,46.70
2022-12-04T19:01:22.506Z,45.27
2022-12-04T19:04:11.276Z,44.27
2022-12-04T19:06:58.308Z,51.53
2022-12-04T19:10:10.468Z,44.73
2022-12-04T19:12:52.717Z,41.90
2022-12-04T19:15:43.902Z,45.20
2022-12-04T19:18:31.600Z,43.73
2022-12-04T19:21:18.896Z,40.63
2022-12-04T19:24:06.262Z,40.50
2022-12-04T19:26:54.108Z,44.97
2022-12-04T19:29:42.981Z,41.23
2022-12-04T19:32:30.061Z,48.73
2022-12-04T19:35:17.394Z,39.20
2022-12-04T19:38:04.653Z,51.50
2022-12-04T19:41:08.135Z,43.40
2022-12-04T19:43:57.373Z,46.77
2022-12-04T19:47:05.207Z,48.87
2022-12-04T19:49:57.826Z,42.57
2022-12-04T19:53:00.864Z,39.40
2022-12-04T19:59:30.572Z,46.13
2022-12-04T20:02:21.822Z,38.90
2022-12-04T20:05:09.316Z,43.73
2022-12-04T20:10:43.921Z,38.63
2022-12-04T20:13:31.078Z,39.00
2022-12-04T20:16:19.491Z,41.60
2022-12-04T20:19:08.927Z,38.63
2022-12-04T20:21:59.356Z,42.57
2022-12-04T20:24:47.129Z,44.60
2022-12-04T20:27:34.335Z,38.27
2022-12-04T20:30:22.808Z,38.77
2022-12-04T20:33:09.868Z,41.90
2022-12-04T20:35:57.165Z,36.90
2022-12-04T20:38:45.160Z,46.63
2022-12-04T20:41:33.285Z,37.17
2022-12-04T20:44:20.962Z,41.10
2022-12-04T20:47:08.070Z,36.23
2022-12-04T20:49:56.509Z,39.10
2022-12-04T20:52:43.818Z,38.57
2022-12-04T20:55:30.835Z,40.07
2022-12-04T20:58:18.254Z,41.13
2022-12-04T21:01:11.323Z,40.77
2022-12-04T21:03:59.689Z,38.10
2022-12-04T21:06:48.448Z,44.17
2022-12-04T21:09:35.810Z,38.87
2022-12-04T21:12:43.330Z,41.43
2022-12-04T21:15:49.442Z,46.87
2022-12-04T21:18:37.376Z,41.13
2022-12-04T21:21:27.204Z,40.10
2022-12-04T21:24:16.428Z,45.53
2022-12-04T21:27:03.740Z,39.07
2022-12-04T21:29:51.045Z,42.60
2022-12-04T21:32:38.296Z,37.60
2022-12-04T21:35:25.584Z,38.80
2022-12-04T21:38:12.620Z,41.47
2022-12-04T21:41:00.357Z,42.30
2022-12-04T21:43:47.359Z,41.70
2022-12-04T21:46:34.841Z,38.17
2022-12-04T21:49:22.285Z,44.60
2022-12-04T21:52:09.317Z,43.20
2022-12-04T21:54:57.083Z,33.77
2022-12-04T21:57:44.082Z,39.80
2022-12-04T22:00:31.268Z,41.33
2022-12-04T22:03:19.090Z,36.20
2022-12-04T22:06:06.660Z,40.23
2022-12-04T22:08:54.602Z,39.23
2022-12-04T22:11:43.310Z,39.00
2022-12-04T22:14:30.472Z,37.53
2022-12-04T22:17:17.491Z,35.00
2022-12-04T22:20:05.430Z,37.83
2022-12-04T22:22:52.610Z,36.97
2022-12-04T22:25:39.749Z,39.87
2022-12-04T22:28:26.778Z,37.77
2022-12-04T22:31:17.011Z,36.77
2022-12-04T22:34:04.344Z,35.70
2022-12-04T22:36:51.373Z,38.57
2022-12-04T22:39:38.463Z,42.57
2022-12-04T22:42:25.502Z,34.47
2022-12-04T22:45:12.987Z,38.97
2022-12-04T22:48:00.011Z,34.50
2022-12-04T22:51:05.860Z,31.80
2022-12-04T22:53:55.568Z,33.23
2022-12-04T22:56:44.338Z,33.03
2022-12-04T22:59:31.347Z,32.10
2022-12-04T23:02:18.517Z,41.30
2022-12-04T23:05:05.816Z,40.67
2022-12-04T23:07:52.964Z,37.30
2022-12-04T23:10:40.245Z,42.33
2022-12-04T23:13:27.389Z,29.77
2022-12-04T23:16:19.848Z,37.40
2022-12-04T23:19:09.349Z,40.50
2022-12-04T23:21:57.385Z,36.70
2022-12-04T23:24:44.563Z,40.53
2022-12-04T23:27:32.309Z,37.53
2022-12-04T23:30:26.137Z,35.87
2022-12-04T23:33:14.582Z,39.70
2022-12-04T23:36:02.978Z,38.30
2022-12-04T23:38:50.361Z,37.23
2022-12-04T23:41:37.430Z,42.97
2022-12-04T23:44:24.549Z,40.73
2022-12-04T23:47:11.929Z,38.37
2022-12-04T23:49:59.414Z,40.50
2022-12-04T23:52:46.887Z,38.77
2022-12-04T23:55:34.817Z,36.67
2022-12-04T23:58:22.046Z,42.70
